x

Folly Island, Sc (fbis1) Weather Station

2:00am - Fri 3rd Jul 2015 All times are EDT. -4 hours from GMT.

  • Wind
    6mph, 9mph gusts
  • Air Temp 72°f
  • Sea Pressure 1015.4mb
  • Folly Island, Sc
  • Folly Island, Sc

More Historic Weather Station data

Upgrade to MSW Pro to gain access to the past 30 days of data for over 8000 Wavebouys and Weather Stations around the globe.

Join Pro

Comparision Forecast

View Surf forecast
   
Fri 07/03 2:00am 6 9 mph 1015.4mb 72f
1:00am 6 8 mph 1015.1mb 72f
12:00am 6 8 mph 1015.8mb 72f
Thu 07/02 11:00pm 2 3 mph 1015.9mb 72f
10:00pm 7 13 mph 1017.1mb 71f
9:00pm 16 20 mph 1018.3mb 71f
8:00pm 29 32 mph 1014.6mb 82f
7:00pm 22 29 mph 1014mb 82f
6:00pm 22 25 mph 1014.2mb 82f
5:00pm 17 21 mph 1014.7mb 82f
4:00pm 18 21 mph 1015.1mb 82f
3:00pm 20 22 mph 1015.4mb 81f
2:00pm 9 13 mph 1016.7mb 78f
1:00pm 15 23 mph 1016.6mb 78f
12:00pm 13 14 mph 1016.8mb 83f
11:00am 9 15 mph 1017mb 85f
10:00am 7 10 mph 1016.8mb 83f
9:00am 8 10 mph 1016.9mb 81f
8:00am 8 13 mph 1016.7mb 77f
7:00am 5 7 mph 1016.2mb 74f
6:00am 5 7 mph 1015.6mb 74f
5:00am 8 10 mph 1015.4mb 75f
4:00am 9 11 mph 1015.3mb 76f
3:00am 7 8 mph 1015.7mb 76f
2:00am 6 7 mph 1016.1mb 77f
1:00am 8 10 mph 1016.5mb 78f
12:00am 7 8 mph 1016.8mb 78f
Wed 07/01 11:00pm 10 11 mph 1017.1mb 82f
10:00pm 11 14 mph 1016.6mb 82f
9:00pm 15 16 mph 1016.1mb 81f
8:00pm 6 8 mph 1015.9mb 84f
7:00pm 9 11 mph 1015.5mb 85f
6:00pm 9 14 mph 1015.3mb 87f
5:00pm 10 14 mph 1015.3mb 85f
4:00pm 14 20 mph 1015.8mb 83f
3:00pm 8 11 mph 1016.1mb 86f
2:00pm 17 20 mph 1016.5mb 83f
1:00pm 20 22 mph 1016.9mb 80f
12:00pm 16 18 mph 1017mb 80f
11:00am 9 15 mph 1017mb 80f
10:00am 8 13 mph 1016.9mb 78f
9:00am 10 15 mph 1017.2mb 76f
8:00am 11 14 mph 1016.5mb 75f
7:00am 8 11 mph 1016.4mb 74f
6:00am 8 9 mph 1015.9mb 74f
5:00am 10 14 mph 1016mb 75f
4:00am 8 10 mph 1016.4mb 76f
3:00am 9 13 mph 1016.2mb 76f
2:00am 5 6 mph 1015.8mb 74f
1:00am 3 6 mph 1016.2mb 74f
12:00am 5 7 mph 1016.1mb 75f
Tue 06/30 11:00pm 5 7 mph 1016.2mb 75f
10:00pm 7 9 mph 1015.9mb 76f
9:00pm 2 3 mph 1015mb 75f
8:00pm 5 7 mph 1014.5mb 77f
7:00pm 24 28 mph 1015.2mb 82f
6:00pm 21 24 mph 1014.9mb 82f
5:00pm 20 24 mph 1015.3mb 83f
4:00pm 21 24 mph 1015.3mb 82f
3:00pm 17 21 mph 1015.3mb 83f
2:00pm 14 15 mph 1015.8mb 83f
1:00pm 15 17 mph 1016.6mb 85f
12:00pm 14 16 mph 1017mb 83f
11:00am 7 10 mph 1017.2mb 86f
10:00am 7 10 mph 1016.9mb 84f
9:00am 7 10 mph 1017mb 81f
8:00am 9 13 mph 1016.6mb 79f
7:00am 7 9 mph 1016.2mb 77f
6:00am 7 9 mph 1015.9mb 76f
5:00am 7 9 mph 1015.3mb 77f
4:00am 6 7 mph 1015.3mb 78f
3:00am 8 11 mph 1015.5mb 79f
2:00am 11 16 mph 1015.5mb 80f
1:00am 11 14 mph 1015.9mb 80f
12:00am 16 20 mph 1015.9mb 80f
Mon 06/29 11:00pm 18 21 mph 1016mb 81f
10:00pm 20 22 mph 1015.7mb 81f
9:00pm 21 22 mph 1015.3mb 81f
8:00pm 20 22 mph 1015mb 81f
7:00pm 18 21 mph 1014.8mb 82f
6:00pm 16 18 mph 1014.6mb 82f
5:00pm 17 21 mph 1014.4mb 83f
4:00pm 16 18 mph 1014.6mb 83f
3:00pm 7 10 mph 1015mb 87f
2:00pm 6 9 mph 1015.5mb 86f
1:00pm 7 10 mph 1015.6mb 87f
12:00pm 6 9 mph 1015.9mb 85f
11:00am 6 10 mph 1015.9mb 82f
10:00am 5 6 mph 1015.8mb 80f
9:00am 5 8 mph 1015.6mb 78f
8:00am 3 5 mph 1015.2mb 76f